Bellingham, Washington
Current Conditions -  °F | °C
As of 5:53 PM on Monday 24 Nov 2014 (Local Time) from KBLI Reporting Station
Overcast Overcast  
Wind Chill: 43°   Ceiling: 5000
Heat Index: 49°   Visibility: 10mi
Dew Point: 43°   Wind: 15mph
Humidity: 80%   Direction: 140°SE
Pressure: 30.06"   Gusts: 25mph
Location:  48.75°N, 122.47°W
Report Text: KBLI 250153Z 14013G22KT 10SM SCT024 SCT039 OVC050 09/06 A3006 RMK AO2 PK WND 14029/0118 RAE53 SLP188 P0001 T00940061
Loading
Personal Weather Stations






























Interactive Weather Map New forecast layout! Learn more

10-Day Weather Forecast

Advertisements
Track Severe Weather on mobile